Terminal Aerodrome Forecast
Issued by NWS

Home | Current Version | Previous Version | Text Only | Print | Product List | Glossary On
Versions: 1 2 3 4 5 6 7 8 9 10 11 12
768
FTPA31 PHFO 251304 AAA
TAFSTU
TAF AMD
NSTU 251304Z 2513/2612 10012KT P6SM VCSH SCT015 BKN035 OVC100
     FM251800 08010KT P6SM VCSH SCT020 SCT040 BKN100=

USA.gov is the U.S. government's official web portal to all federal, state and local government web resources and services.